createdAt,value
2023-04-18T00:01:00.516Z,4.03
2023-04-18T00:03:33.959Z,3.53
2023-04-18T00:06:15.674Z,3.40
2023-04-18T00:08:54.621Z,2.95
2023-04-18T00:11:31.617Z,3.13
2023-04-18T00:14:12.378Z,2.85
2023-04-18T00:16:58.579Z,3.20
2023-04-18T00:19:37.074Z,3.05
2023-04-18T00:22:17.638Z,3.10
2023-04-18T00:24:58.937Z,2.72
2023-04-18T00:27:37.198Z,2.65
2023-04-18T00:30:15.295Z,2.70
2023-04-18T00:32:54.652Z,3.03
2023-04-18T00:35:38.352Z,3.03
2023-04-18T00:38:17.567Z,2.65
2023-04-18T00:41:06.235Z,2.83
2023-04-18T00:43:38.248Z,2.45
2023-04-18T00:46:17.139Z,2.85
2023-04-18T00:48:57.003Z,3.10
2023-04-18T00:51:40.294Z,3.17
2023-04-18T00:54:44.691Z,2.60
2023-04-18T00:57:23.027Z,2.53
2023-04-18T00:59:59.173Z,3.47
2023-04-18T01:02:50.153Z,3.50
2023-04-18T01:05:32.987Z,3.70
2023-04-18T01:08:07.421Z,3.55
2023-04-18T01:10:41.990Z,2.80
2023-04-18T01:13:29.332Z,3.00
2023-04-18T01:16:04.652Z,3.42
2023-04-18T01:18:40.803Z,3.70
2023-04-18T01:21:23.372Z,3.22
2023-04-18T01:24:09.297Z,3.90
2023-04-18T01:26:52.440Z,3.33
2023-04-18T01:29:28.547Z,3.55
2023-04-18T01:32:13.410Z,3.63
2023-04-18T01:34:47.587Z,3.65
2023-04-18T01:37:24.185Z,3.78
2023-04-18T01:40:01.996Z,3.08
2023-04-18T01:42:41.188Z,3.72
2023-04-18T01:45:20.209Z,2.92
2023-04-18T01:47:56.531Z,3.50
2023-04-18T01:50:33.313Z,3.08
2023-04-18T01:53:16.402Z,4.00
2023-04-18T01:55:54.030Z,3.70
2023-04-18T01:58:32.248Z,3.88
2023-04-18T02:01:08.586Z,3.67
2023-04-18T02:03:51.141Z,3.15
2023-04-18T02:06:29.160Z,3.70
2023-04-18T02:09:03.036Z,3.70
2023-04-18T02:11:37.060Z,3.55
2023-04-18T02:14:15.212Z,3.13
2023-04-18T02:16:53.739Z,3.50
2023-04-18T02:19:36.196Z,3.80
2023-04-18T02:22:12.303Z,3.92
2023-04-18T02:24:54.942Z,3.97
2023-04-18T02:27:27.377Z,6.13
2023-04-18T02:30:12.328Z,3.60
2023-04-18T02:32:47.472Z,3.38
2023-04-18T02:35:23.207Z,4.07
2023-04-18T02:38:08.845Z,4.05
2023-04-18T02:40:51.772Z,3.20
2023-04-18T02:43:35.419Z,3.72
2023-04-18T02:46:16.472Z,3.53
2023-04-18T02:48:54.174Z,3.20
2023-04-18T02:51:32.146Z,3.45
2023-04-18T02:54:12.367Z,2.88
2023-04-18T02:57:03.741Z,2.90
2023-04-18T03:00:01.794Z,2.85
2023-04-18T03:03:08.846Z,2.78
2023-04-18T03:06:13.935Z,1.80
2023-04-18T03:08:54.170Z,1.48
2023-04-18T03:11:49.402Z,1.58
2023-04-18T03:14:31.153Z,1.58
2023-04-18T03:17:10.523Z,1.50
2023-04-18T03:19:58.182Z,1.85
2023-04-18T03:22:37.288Z,1.75
2023-04-18T03:25:19.222Z,1.60
2023-04-18T03:28:13.415Z,1.60
2023-04-18T03:30:52.135Z,1.55
2023-04-18T03:33:24.793Z,1.55
2023-04-18T03:36:13.418Z,1.58
2023-04-18T03:38:44.922Z,1.50
2023-04-18T03:41:18.268Z,1.10
2023-04-18T03:43:51.356Z,1.92
2023-04-18T03:46:27.139Z,1.27
2023-04-18T03:49:06.783Z,1.50
2023-04-18T03:51:48.957Z,1.00
2023-04-18T03:54:26.804Z,1.33
2023-04-18T03:57:06.744Z,1.17
2023-04-18T03:59:52.620Z,1.20
2023-04-18T04:02:26.769Z,1.00
2023-04-18T04:05:05.857Z,1.20
2023-04-18T04:07:41.116Z,1.20
2023-04-18T04:10:17.285Z,1.42
2023-04-18T04:12:54.791Z,1.55
2023-04-18T04:15:32.465Z,1.60
2023-04-18T04:18:13.869Z,1.50
2023-04-18T04:20:56.257Z,1.25
2023-04-18T04:26:31.298Z,1.20
2023-04-18T04:29:16.465Z,1.10
2023-04-18T04:31:50.358Z,1.10
2023-04-18T04:34:44.467Z,1.30
2023-04-18T04:37:19.890Z,1.13
2023-04-18T04:40:17.099Z,1.13
2023-04-18T04:43:15.793Z,1.05
2023-04-18T04:46:16.492Z,0.80
2023-04-18T04:48:57.390Z,0.98
2023-04-18T04:51:39.654Z,0.98
2023-04-18T04:54:14.954Z,0.90
2023-04-18T04:56:53.306Z,1.25
2023-04-18T04:59:27.904Z,1.10
2023-04-18T05:02:03.984Z,1.05
2023-04-18T05:04:40.620Z,1.30
2023-04-18T05:07:19.299Z,0.98
2023-04-18T05:09:56.339Z,0.80
2023-04-18T05:12:42.432Z,0.98
2023-04-18T05:15:21.732Z,0.80
2023-04-18T05:17:58.437Z,0.98
2023-04-18T05:20:32.502Z,0.60
2023-04-18T05:23:07.204Z,1.00
2023-04-18T05:25:50.101Z,1.10
2023-04-18T05:28:28.900Z,0.80
2023-04-18T05:31:04.462Z,0.90
2023-04-18T05:33:45.887Z,1.30
2023-04-18T05:36:18.930Z,1.20
2023-04-18T05:39:02.765Z,1.30
2023-04-18T05:41:37.431Z,1.25
2023-04-18T05:44:16.316Z,1.00
2023-04-18T05:46:54.745Z,1.20
2023-04-18T05:49:28.275Z,1.25
2023-04-18T05:52:03.539Z,0.80
2023-04-18T05:54:48.508Z,1.20
2023-04-18T05:57:26.073Z,1.05
2023-04-18T06:00:15.970Z,1.20
2023-04-18T06:02:50.892Z,1.10
2023-04-18T06:05:30.869Z,1.95
2023-04-18T06:08:08.663Z,1.55
2023-04-18T06:10:41.634Z,1.90
2023-04-18T06:13:21.477Z,2.00
2023-04-18T06:15:58.499Z,2.08
2023-04-18T06:18:39.097Z,1.88
2023-04-18T06:21:11.810Z,1.63
2023-04-18T06:23:52.439Z,1.40
2023-04-18T06:26:29.549Z,1.30
2023-04-18T06:29:05.823Z,2.10
2023-04-18T06:31:52.278Z,1.60
2023-04-18T06:34:39.007Z,1.88
2023-04-18T06:37:11.586Z,1.77
2023-04-18T06:42:22.021Z,1.65
2023-04-18T06:45:00.880Z,1.52
2023-04-18T06:47:35.046Z,1.38
2023-04-18T06:50:08.068Z,1.45
2023-04-18T06:52:47.891Z,1.75
2023-04-18T06:55:24.181Z,1.83
2023-04-18T06:57:57.340Z,1.33
2023-04-18T07:00:29.363Z,1.90
2023-04-18T07:03:11.282Z,1.52
2023-04-18T07:05:43.769Z,2.17
2023-04-18T07:08:21.513Z,2.30
2023-04-18T07:10:57.364Z,1.70
2023-04-18T07:13:37.325Z,1.90
2023-04-18T07:16:09.131Z,2.00
2023-04-18T07:18:44.484Z,2.10
2023-04-18T07:21:17.319Z,1.90
2023-04-18T07:23:55.375Z,1.70
2023-04-18T07:26:37.505Z,1.95
2023-04-18T07:29:15.994Z,2.78
2023-04-18T07:31:50.825Z,2.00
2023-04-18T07:34:30.123Z,1.92
2023-04-18T07:37:08.076Z,2.28
2023-04-18T07:39:42.132Z,2.13
2023-04-18T07:42:19.191Z,1.92
2023-04-18T07:44:59.589Z,2.25
2023-04-18T07:47:36.930Z,2.20
2023-04-18T07:50:20.657Z,2.35
2023-04-18T07:52:57.692Z,2.15
2023-04-18T07:55:33.462Z,2.00
2023-04-18T07:58:10.741Z,2.22
2023-04-18T08:00:46.369Z,2.25
2023-04-18T08:06:25.281Z,2.20
2023-04-18T08:09:09.470Z,2.47
2023-04-18T08:11:44.300Z,2.13
2023-04-18T08:14:22.543Z,2.50
2023-04-18T08:16:58.525Z,1.88
2023-04-18T08:19:31.559Z,2.10
2023-04-18T08:22:22.988Z,2.00
2023-04-18T08:25:04.306Z,1.73
2023-04-18T08:27:35.667Z,2.20
2023-04-18T08:30:15.846Z,2.38
2023-04-18T08:32:54.611Z,2.33
2023-04-18T08:35:39.542Z,2.42
2023-04-18T08:38:22.800Z,2.03
2023-04-18T08:41:01.364Z,2.72
2023-04-18T08:43:35.743Z,2.25
2023-04-18T08:46:11.014Z,2.38
2023-04-18T08:48:50.160Z,2.30
2023-04-18T08:51:29.393Z,2.58
2023-04-18T08:54:07.556Z,2.42
2023-04-18T08:56:46.339Z,1.98
2023-04-18T08:59:21.955Z,2.25
2023-04-18T09:02:04.650Z,2.13
2023-04-18T09:04:43.456Z,2.10
2023-04-18T09:07:20.266Z,2.38
2023-04-18T09:10:02.077Z,2.10
2023-04-18T09:12:40.419Z,2.38
2023-04-18T09:15:23.682Z,2.05
2023-04-18T09:18:05.276Z,2.03
2023-04-18T09:20:49.805Z,2.15
2023-04-18T09:23:32.119Z,2.05
2023-04-18T09:26:12.074Z,2.10
2023-04-18T09:29:01.804Z,2.35
2023-04-18T09:31:36.024Z,2.63
2023-04-18T09:34:15.964Z,2.90
2023-04-18T09:37:11.659Z,2.00
2023-04-18T09:39:50.194Z,2.58
2023-04-18T09:42:29.657Z,2.17
2023-04-18T09:45:19.930Z,2.35
2023-04-18T09:48:00.667Z,2.13
2023-04-18T09:50:37.402Z,1.87
2023-04-18T09:53:15.188Z,1.35
2023-04-18T09:55:52.545Z,2.00
2023-04-18T09:58:33.257Z,2.10
2023-04-18T10:01:05.417Z,2.53
2023-04-18T10:03:47.507Z,1.77
2023-04-18T10:06:25.591Z,1.90
2023-04-18T10:09:02.832Z,2.33
2023-04-18T10:11:43.924Z,1.70
2023-04-18T10:16:53.503Z,1.83
2023-04-18T10:19:33.114Z,1.90
2023-04-18T10:22:12.417Z,1.60
2023-04-18T10:24:53.907Z,1.70
2023-04-18T10:27:54.102Z,1.77
2023-04-18T10:31:00.646Z,1.70
2023-04-18T10:33:42.516Z,1.27
2023-04-18T10:36:22.893Z,1.20
2023-04-18T10:38:59.994Z,1.50
2023-04-18T10:41:41.058Z,1.70
2023-04-18T10:44:28.830Z,1.83
2023-04-18T10:47:32.456Z,2.25
2023-04-18T10:50:19.601Z,1.42
2023-04-18T10:52:56.903Z,1.77
2023-04-18T10:55:34.303Z,1.88
2023-04-18T10:58:08.658Z,2.22
2023-04-18T11:00:49.014Z,1.52
2023-04-18T11:03:37.356Z,1.90
2023-04-18T11:06:14.062Z,1.92
2023-04-18T11:08:52.155Z,2.13
2023-04-18T11:11:31.786Z,2.75
2023-04-18T11:14:08.686Z,2.15
2023-04-18T11:16:48.266Z,2.03
2023-04-18T11:19:31.286Z,2.10
2023-04-18T11:22:06.352Z,1.95
2023-04-18T11:24:43.204Z,1.90
2023-04-18T11:27:22.912Z,2.38
2023-04-18T11:30:02.928Z,2.10
2023-04-18T11:32:43.922Z,2.15
2023-04-18T11:35:29.331Z,2.50
2023-04-18T11:38:11.435Z,2.28
2023-04-18T11:40:52.167Z,2.60
2023-04-18T11:43:32.937Z,2.70
2023-04-18T11:46:10.119Z,2.67
2023-04-18T11:48:46.483Z,2.85
2023-04-18T11:51:49.441Z,3.10
2023-04-18T11:54:52.830Z,2.35
2023-04-18T11:57:32.265Z,2.75
2023-04-18T12:00:08.130Z,2.60
2023-04-18T12:02:53.348Z,2.30
2023-04-18T12:05:33.955Z,3.08
2023-04-18T12:08:20.149Z,2.40
2023-04-18T12:10:55.809Z,2.88
2023-04-18T12:13:40.972Z,2.83
2023-04-18T12:16:17.994Z,3.17
2023-04-18T12:18:52.737Z,3.17
2023-04-18T12:21:31.434Z,2.72
2023-04-18T12:24:15.922Z,2.80
2023-04-18T12:27:00.612Z,3.50
2023-04-18T12:29:40.302Z,3.15
2023-04-18T12:32:17.722Z,3.95
2023-04-18T12:34:59.326Z,3.30
2023-04-18T12:37:39.400Z,3.45
2023-04-18T12:40:19.323Z,3.43
2023-04-18T12:42:57.024Z,3.17
2023-04-18T12:45:37.440Z,3.60
2023-04-18T12:48:20.453Z,3.90
2023-04-18T12:51:10.831Z,3.80
2023-04-18T12:53:46.671Z,3.47
2023-04-18T12:56:28.151Z,3.60
2023-04-18T12:59:16.847Z,3.60
2023-04-18T13:01:54.359Z,3.60
2023-04-18T13:04:30.929Z,4.00
2023-04-18T13:07:03.444Z,3.85
2023-04-18T13:09:37.769Z,4.18
2023-04-18T13:12:15.156Z,4.30
2023-04-18T13:14:48.797Z,3.90
2023-04-18T13:17:24.224Z,4.45
2023-04-18T13:19:58.381Z,4.20
2023-04-18T13:22:46.089Z,4.38
2023-04-18T13:25:17.925Z,4.22
2023-04-18T13:27:53.893Z,4.05
2023-04-18T13:30:40.515Z,4.93
2023-04-18T13:33:25.315Z,4.57
2023-04-18T13:35:57.826Z,4.75
2023-04-18T13:38:34.189Z,4.22
2023-04-18T13:41:12.777Z,4.10
2023-04-18T13:43:47.491Z,4.05
2023-04-18T13:46:29.823Z,4.70
2023-04-18T13:49:09.835Z,4.32
2023-04-18T13:51:45.734Z,4.57
2023-04-18T13:54:31.366Z,4.25
2023-04-18T13:57:05.415Z,4.18
2023-04-18T13:59:46.514Z,5.40
2023-04-18T14:02:31.516Z,4.53
2023-04-18T14:05:23.006Z,5.25
2023-04-18T14:08:02.273Z,5.50
2023-04-18T14:10:33.775Z,6.15
2023-04-18T14:13:13.567Z,5.25
2023-04-18T14:15:50.736Z,4.65
2023-04-18T14:18:27.628Z,4.35
2023-04-18T14:21:08.554Z,6.57
2023-04-18T14:23:43.520Z,4.82
2023-04-18T14:26:19.011Z,4.00
2023-04-18T14:29:05.252Z,4.07
2023-04-18T14:31:49.306Z,4.32
2023-04-18T14:34:29.029Z,4.10
2023-04-18T14:37:04.046Z,4.22
2023-04-18T14:39:49.483Z,4.07
2023-04-18T14:42:24.152Z,4.13
2023-04-18T14:44:58.453Z,4.00
2023-04-18T14:47:36.152Z,4.40
2023-04-18T14:50:12.469Z,4.43
2023-04-18T14:52:47.070Z,3.92
2023-04-18T14:55:20.209Z,4.65
2023-04-18T14:57:56.021Z,4.25
2023-04-18T15:00:28.467Z,4.85
2023-04-18T15:03:07.693Z,5.35
2023-04-18T15:05:49.967Z,5.85
2023-04-18T15:08:33.075Z,5.13
2023-04-18T15:11:09.708Z,4.38
2023-04-18T15:13:48.012Z,5.45
2023-04-18T15:16:20.730Z,4.63
2023-04-18T15:19:00.858Z,4.78
2023-04-18T15:21:39.591Z,4.70
2023-04-18T15:24:12.666Z,5.20
2023-04-18T15:26:45.562Z,4.95
2023-04-18T15:29:19.839Z,5.40
2023-04-18T15:31:52.792Z,5.65
2023-04-18T15:34:28.073Z,5.05
2023-04-18T15:37:07.318Z,5.63
2023-04-18T15:39:41.056Z,5.40
2023-04-18T15:42:18.503Z,5.97
2023-04-18T15:44:52.994Z,6.65
2023-04-18T15:47:27.998Z,5.97
2023-04-18T15:50:08.643Z,5.25
2023-04-18T15:52:44.780Z,6.00
2023-04-18T15:55:20.127Z,11.70
2023-04-18T15:57:55.182Z,17.67
2023-04-18T16:00:34.696Z,19.83
2023-04-18T16:03:10.185Z,13.07
2023-04-18T16:05:50.218Z,6.53
2023-04-18T16:08:26.987Z,6.20
2023-04-18T16:10:58.189Z,10.23
2023-04-18T16:13:31.616Z,7.53
2023-04-18T16:16:06.942Z,7.50
2023-04-18T16:18:44.159Z,6.45
2023-04-18T16:21:23.491Z,6.35
2023-04-18T16:24:00.563Z,7.00
2023-04-18T16:26:38.494Z,6.82
2023-04-18T16:29:15.641Z,7.22
2023-04-18T16:31:49.424Z,9.93
2023-04-18T16:34:23.021Z,10.32
2023-04-18T16:36:58.986Z,8.15
2023-04-18T16:39:34.073Z,7.82
2023-04-18T16:42:15.376Z,6.65
2023-04-18T16:44:54.101Z,7.68
2023-04-18T16:47:28.828Z,6.47
2023-04-18T16:50:17.699Z,6.57
2023-04-18T16:52:55.168Z,6.85
2023-04-18T16:55:27.339Z,9.45
2023-04-18T16:58:09.418Z,9.85
2023-04-18T17:00:46.377Z,9.60
2023-04-18T17:03:18.507Z,10.40
2023-04-18T17:05:57.103Z,9.55
2023-04-18T17:08:36.791Z,9.35
2023-04-18T17:11:13.646Z,17.95
2023-04-18T17:13:55.666Z,12.52
2023-04-18T17:16:30.006Z,10.18
2023-04-18T17:19:10.114Z,10.65
2023-04-18T17:21:48.107Z,11.05
2023-04-18T17:24:31.301Z,9.40
2023-04-18T17:27:06.819Z,9.35
2023-04-18T17:29:45.936Z,9.02
2023-04-18T17:32:33.231Z,8.07
2023-04-18T17:35:07.846Z,7.65
2023-04-18T17:37:50.277Z,7.47
2023-04-18T17:40:30.452Z,8.48
2023-04-18T17:43:19.977Z,7.35
2023-04-18T17:45:58.085Z,8.90
2023-04-18T17:48:33.725Z,10.23
2023-04-18T17:51:07.209Z,9.55
2023-04-18T17:53:51.571Z,9.45
2023-04-18T17:56:28.174Z,8.60
2023-04-18T17:58:59.037Z,8.98
2023-04-18T18:01:38.047Z,9.45
2023-04-18T18:04:13.457Z,10.35
2023-04-18T18:07:00.524Z,11.27
2023-04-18T18:09:41.757Z,11.57
2023-04-18T18:12:25.028Z,12.52
2023-04-18T18:15:00.530Z,14.30
2023-04-18T18:17:36.004Z,14.02
2023-04-18T18:20:18.283Z,15.82
2023-04-18T18:22:53.158Z,15.00
2023-04-18T18:25:33.752Z,15.82
2023-04-18T18:28:17.314Z,18.65
2023-04-18T18:30:53.277Z,14.07
2023-04-18T18:33:32.368Z,16.55
2023-04-18T18:36:10.880Z,16.88
2023-04-18T18:38:45.544Z,15.02
2023-04-18T18:41:18.812Z,15.00
2023-04-18T18:44:08.755Z,16.13
2023-04-18T18:46:43.379Z,20.10
2023-04-18T18:49:20.511Z,20.05
2023-04-18T18:52:07.377Z,19.98
2023-04-18T18:54:45.290Z,18.33
2023-04-18T18:57:30.093Z,16.25
2023-04-18T19:00:05.893Z,12.82
2023-04-18T19:02:38.979Z,14.70
2023-04-18T19:05:18.429Z,13.25
2023-04-18T19:08:00.172Z,12.30
2023-04-18T19:10:41.231Z,12.23
2023-04-18T19:13:18.183Z,11.77
2023-04-18T19:15:57.445Z,12.48
2023-04-18T19:18:33.057Z,10.65
2023-04-18T19:21:10.302Z,11.68
2023-04-18T19:23:49.113Z,11.80
2023-04-18T19:26:25.895Z,13.82
2023-04-18T19:29:01.726Z,13.40
2023-04-18T19:31:45.546Z,14.48
2023-04-18T19:34:26.989Z,15.02
2023-04-18T19:37:03.477Z,16.08
2023-04-18T19:39:36.553Z,15.95
2023-04-18T19:42:15.681Z,14.02
2023-04-18T19:45:00.607Z,16.05
2023-04-18T19:47:38.810Z,15.65
2023-04-18T19:50:33.897Z,15.48
2023-04-18T19:53:14.088Z,15.32
2023-04-18T19:55:51.873Z,14.07
2023-04-18T19:58:47.039Z,14.45
2023-04-18T20:01:25.739Z,13.48
2023-04-18T20:04:04.469Z,14.52
2023-04-18T20:06:45.080Z,14.43
2023-04-18T20:09:20.422Z,16.17
2023-04-18T20:11:52.108Z,14.43
2023-04-18T20:14:26.249Z,13.38
2023-04-18T20:17:08.564Z,13.68
2023-04-18T20:19:49.320Z,15.20
2023-04-18T20:22:30.484Z,12.63
2023-04-18T20:25:07.331Z,12.45
2023-04-18T20:27:41.471Z,11.70
2023-04-18T20:30:22.531Z,11.73
2023-04-18T20:33:08.029Z,11.90
2023-04-18T20:35:51.509Z,9.40
2023-04-18T20:38:30.001Z,9.45
2023-04-18T20:41:06.750Z,10.63
2023-04-18T20:43:37.550Z,13.07
2023-04-18T20:46:25.223Z,12.23
2023-04-18T20:48:59.672Z,16.10
2023-04-18T20:51:46.732Z,15.63
2023-04-18T20:54:25.481Z,16.10
2023-04-18T20:57:05.304Z,15.98
2023-04-18T20:59:38.716Z,16.08
2023-04-18T21:02:15.760Z,20.10
2023-04-18T21:04:54.357Z,17.67
2023-04-18T21:07:36.109Z,17.55
2023-04-18T21:10:28.072Z,16.38
2023-04-18T21:13:10.573Z,17.30
2023-04-18T21:15:51.192Z,18.90
2023-04-18T21:18:33.340Z,19.65
2023-04-18T21:21:10.690Z,19.88
2023-04-18T21:23:50.603Z,18.20
2023-04-18T21:26:27.073Z,16.73
2023-04-18T21:29:06.378Z,16.83
2023-04-18T21:31:43.814Z,16.45
2023-04-18T21:34:25.612Z,17.60
2023-04-18T21:37:04.653Z,16.65
2023-04-18T21:39:51.813Z,16.35
2023-04-18T21:42:29.506Z,17.45
2023-04-18T21:45:04.069Z,17.40
2023-04-18T21:47:36.886Z,16.02
2023-04-18T21:50:16.724Z,14.98
2023-04-18T21:52:56.870Z,15.48
2023-04-18T21:55:34.741Z,13.88
2023-04-18T21:58:10.048Z,13.05
2023-04-18T22:00:49.735Z,11.95
2023-04-18T22:03:25.866Z,12.25
2023-04-18T22:06:01.961Z,12.35
2023-04-18T22:08:43.444Z,12.02
2023-04-18T22:11:24.288Z,12.07
2023-04-18T22:14:04.636Z,11.63
2023-04-18T22:16:45.513Z,12.55
2023-04-18T22:19:29.369Z,13.27
2023-04-18T22:22:04.358Z,12.23
2023-04-18T22:24:46.809Z,12.93
2023-04-18T22:27:31.078Z,14.23
2023-04-18T22:30:07.192Z,14.10
2023-04-18T22:32:49.319Z,15.07
2023-04-18T22:35:24.142Z,14.90
2023-04-18T22:38:11.981Z,14.45
2023-04-18T22:40:50.064Z,14.82
2023-04-18T22:43:29.229Z,14.05
2023-04-18T22:46:09.059Z,13.15
2023-04-18T22:48:48.067Z,13.50
2023-04-18T22:51:22.372Z,15.00
2023-04-18T22:54:00.682Z,14.85
2023-04-18T22:56:39.428Z,14.35
2023-04-18T22:59:20.526Z,14.57
2023-04-18T23:04:32.548Z,13.70
2023-04-18T23:07:07.124Z,14.57
2023-04-18T23:09:45.307Z,13.98
2023-04-18T23:12:32.794Z,14.60
2023-04-18T23:15:18.393Z,13.18
2023-04-18T23:17:59.671Z,12.23
2023-04-18T23:20:47.169Z,11.43
2023-04-18T23:23:23.085Z,14.32
2023-04-18T23:25:59.461Z,13.38
2023-04-18T23:28:31.308Z,16.98
2023-04-18T23:31:12.893Z,16.45
2023-04-18T23:33:58.861Z,17.38
2023-04-18T23:36:40.537Z,17.08
2023-04-18T23:39:16.957Z,16.38
2023-04-18T23:41:50.015Z,16.67
2023-04-18T23:44:24.057Z,12.63
2023-04-18T23:46:58.335Z,12.07
2023-04-18T23:49:33.456Z,15.68
2023-04-18T23:52:08.285Z,13.27
2023-04-18T23:54:45.710Z,12.40
2023-04-18T23:57:25.441Z,12.15
